sensor_id;sensor_type;location;lat;lon;timestamp;P1;durP1;ratioP1;P2;durP2;ratioP2
42802;SDS011;28447;48.682;9.022;2024-03-22T05:00:49;24.37;;;16.73;;
42802;SDS011;28447;48.682;9.022;2024-03-22T05:03:21;24.90;;;16.37;;
42802;SDS011;28447;48.682;9.022;2024-03-22T05:05:47;22.90;;;15.30;;
42802;SDS011;28447;48.682;9.022;2024-03-22T05:08:13;26.30;;;15.70;;
42802;SDS011;28447;48.682;9.022;2024-03-22T05:10:39;24.57;;;15.83;;
42802;SDS011;28447;48.682;9.022;2024-03-22T05:13:05;26.27;;;16.07;;
42802;SDS011;28447;48.682;9.022;2024-03-22T05:15:31;23.27;;;15.43;;
42802;SDS011;28447;48.682;9.022;2024-03-22T05:17:57;24.30;;;16.73;;
42802;SDS011;28447;48.682;9.022;2024-03-22T05:20:23;27.33;;;18.60;;
42802;SDS011;28447;48.682;9.022;2024-03-22T05:22:49;22.83;;;16.47;;
42802;SDS011;28447;48.682;9.022;2024-03-22T05:25:15;22.67;;;16.30;;
42802;SDS011;28447;48.682;9.022;2024-03-22T05:27:41;24.20;;;16.03;;
42802;SDS011;28447;48.682;9.022;2024-03-22T05:30:11;37.37;;;16.57;;
42802;SDS011;28447;48.682;9.022;2024-03-22T05:32:38;27.20;;;16.90;;
42802;SDS011;28447;48.682;9.022;2024-03-22T05:35:05;24.63;;;15.10;;
42802;SDS011;28447;48.682;9.022;2024-03-22T05:37:31;23.30;;;14.40;;
42802;SDS011;28447;48.682;9.022;2024-03-22T05:39:59;23.70;;;15.73;;
42802;SDS011;28447;48.682;9.022;2024-03-22T05:42:25;23.90;;;15.33;;
42802;SDS011;28447;48.682;9.022;2024-03-22T05:44:51;26.53;;;15.37;;
42802;SDS011;28447;48.682;9.022;2024-03-22T05:47:17;21.47;;;14.47;;
42802;SDS011;28447;48.682;9.022;2024-03-22T05:49:44;21.87;;;14.83;;
42802;SDS011;28447;48.682;9.022;2024-03-22T05:52:10;23.77;;;14.97;;
42802;SDS011;28447;48.682;9.022;2024-03-22T05:54:37;20.40;;;13.70;;
42802;SDS011;28447;48.682;9.022;2024-03-22T05:57:03;19.90;;;14.57;;
42802;SDS011;28447;48.682;9.022;2024-03-22T05:59:30;21.50;;;14.37;;
42802;SDS011;28447;48.682;9.022;2024-03-22T06:01:56;24.33;;;14.67;;
42802;SDS011;28447;48.682;9.022;2024-03-22T06:04:22;20.80;;;14.70;;
42802;SDS011;28447;48.682;9.022;2024-03-22T06:06:51;24.33;;;16.17;;
42802;SDS011;28447;48.682;9.022;2024-03-22T06:09:17;22.17;;;14.90;;
42802;SDS011;28447;48.682;9.022;2024-03-22T06:11:52;21.67;;;15.07;;
42802;SDS011;28447;48.682;9.022;2024-03-22T06:14:18;23.03;;;15.20;;
42802;SDS011;28447;48.682;9.022;2024-03-22T06:16:44;23.70;;;14.33;;
42802;SDS011;28447;48.682;9.022;2024-03-22T06:19:10;26.63;;;15.00;;
42802;SDS011;28447;48.682;9.022;2024-03-22T06:21:36;21.83;;;14.83;;
42802;SDS011;28447;48.682;9.022;2024-03-22T06:24:02;25.23;;;14.83;;
42802;SDS011;28447;48.682;9.022;2024-03-22T06:26:28;21.77;;;14.27;;
42802;SDS011;28447;48.682;9.022;2024-03-22T06:28:54;26.33;;;15.77;;
42802;SDS011;28447;48.682;9.022;2024-03-22T06:31:20;21.87;;;14.53;;
42802;SDS011;28447;48.682;9.022;2024-03-22T06:33:47;20.07;;;14.90;;
42802;SDS011;28447;48.682;9.022;2024-03-22T06:36:13;23.13;;;14.77;;
42802;SDS011;28447;48.682;9.022;2024-03-22T06:38:39;24.50;;;14.93;;
42802;SDS011;28447;48.682;9.022;2024-03-22T06:41:05;25.53;;;15.90;;
42802;SDS011;28447;48.682;9.022;2024-03-22T06:43:31;20.13;;;14.30;;
42802;SDS011;28447;48.682;9.022;2024-03-22T06:45:56;29.50;;;17.70;;
42802;SDS011;28447;48.682;9.022;2024-03-22T06:48:22;23.40;;;16.80;;
42802;SDS011;28447;48.682;9.022;2024-03-22T06:50:48;24.53;;;16.03;;
42802;SDS011;28447;48.682;9.022;2024-03-22T06:53:14;22.93;;;15.60;;
42802;SDS011;28447;48.682;9.022;2024-03-22T06:55:40;21.70;;;15.77;;
42802;SDS011;28447;48.682;9.022;2024-03-22T06:58:06;24.67;;;17.80;;
42802;SDS011;28447;48.682;9.022;2024-03-22T07:00:32;25.30;;;16.83;;
42802;SDS011;28447;48.682;9.022;2024-03-22T07:03:00;27.90;;;16.10;;
42802;SDS011;28447;48.682;9.022;2024-03-22T07:05:27;25.23;;;17.67;;
42802;SDS011;28447;48.682;9.022;2024-03-22T07:07:53;27.00;;;16.70;;
42802;SDS011;28447;48.682;9.022;2024-03-22T07:10:22;25.03;;;16.00;;
42802;SDS011;28447;48.682;9.022;2024-03-22T07:12:49;24.50;;;15.43;;
42802;SDS011;28447;48.682;9.022;2024-03-22T07:15:15;25.93;;;16.37;;
42802;SDS011;28447;48.682;9.022;2024-03-22T07:17:41;24.47;;;17.50;;
42802;SDS011;28447;48.682;9.022;2024-03-22T07:20:07;20.87;;;14.77;;
42802;SDS011;28447;48.682;9.022;2024-03-22T07:22:34;19.93;;;14.40;;
42802;SDS011;28447;48.682;9.022;2024-03-22T07:25:00;19.80;;;14.27;;
42802;SDS011;28447;48.682;9.022;2024-03-22T07:27:26;21.40;;;15.30;;
42802;SDS011;28447;48.682;9.022;2024-03-22T07:29:54;22.27;;;14.43;;
42802;SDS011;28447;48.682;9.022;2024-03-22T07:32:20;23.50;;;15.40;;
42802;SDS011;28447;48.682;9.022;2024-03-22T07:34:46;20.80;;;15.40;;
42802;SDS011;28447;48.682;9.022;2024-03-22T07:37:12;19.47;;;13.70;;
42802;SDS011;28447;48.682;9.022;2024-03-22T07:39:38;18.20;;;13.40;;
42802;SDS011;28447;48.682;9.022;2024-03-22T07:42:04;19.77;;;13.87;;
42802;SDS011;28447;48.682;9.022;2024-03-22T07:44:31;17.30;;;13.30;;
42802;SDS011;28447;48.682;9.022;2024-03-22T07:46:57;18.20;;;12.57;;
42802;SDS011;28447;48.682;9.022;2024-03-22T07:49:23;20.63;;;12.90;;
42802;SDS011;28447;48.682;9.022;2024-03-22T07:51:49;17.33;;;12.80;;
42802;SDS011;28447;48.682;9.022;2024-03-22T07:54:15;17.57;;;11.73;;
42802;SDS011;28447;48.682;9.022;2024-03-22T07:56:41;14.90;;;10.80;;
42802;SDS011;28447;48.682;9.022;2024-03-22T07:59:07;13.73;;;10.87;;
42802;SDS011;28447;48.682;9.022;2024-03-22T08:01:34;16.40;;;11.17;;
42802;SDS011;28447;48.682;9.022;2024-03-22T08:04:00;16.20;;;10.90;;
42802;SDS011;28447;48.682;9.022;2024-03-22T08:06:26;14.57;;;10.87;;
42802;SDS011;28447;48.682;9.022;2024-03-22T08:08:52;14.70;;;11.13;;
42802;SDS011;28447;48.682;9.022;2024-03-22T08:11:18;15.67;;;11.37;;
42802;SDS011;28447;48.682;9.022;2024-03-22T08:13:44;18.37;;;11.17;;
42802;SDS011;28447;48.682;9.022;2024-03-22T08:16:09;15.80;;;10.80;;
42802;SDS011;28447;48.682;9.022;2024-03-22T08:18:36;12.50;;;10.23;;
42802;SDS011;28447;48.682;9.022;2024-03-22T08:21:02;15.33;;;10.83;;
42802;SDS011;28447;48.682;9.022;2024-03-22T08:23:28;14.30;;;9.80;;
42802;SDS011;28447;48.682;9.022;2024-03-22T08:25:54;15.83;;;10.33;;
42802;SDS011;28447;48.682;9.022;2024-03-22T08:28:22;11.27;;;9.43;;
42802;SDS011;28447;48.682;9.022;2024-03-22T08:30:48;22.00;;;11.20;;
42802;SDS011;28447;48.682;9.022;2024-03-22T08:33:14;16.57;;;10.20;;
42802;SDS011;28447;48.682;9.022;2024-03-22T08:35:40;13.80;;;9.70;;
42802;SDS011;28447;48.682;9.022;2024-03-22T08:38:06;16.63;;;10.83;;
42802;SDS011;28447;48.682;9.022;2024-03-22T08:40:36;15.67;;;10.23;;
42802;SDS011;28447;48.682;9.022;2024-03-22T08:43:03;15.20;;;11.20;;
42802;SDS011;28447;48.682;9.022;2024-03-22T08:45:29;12.40;;;8.63;;
42802;SDS011;28447;48.682;9.022;2024-03-22T08:47:57;14.37;;;9.63;;
42802;SDS011;28447;48.682;9.022;2024-03-22T08:50:23;11.77;;;9.37;;
42802;SDS011;28447;48.682;9.022;2024-03-22T08:52:50;12.70;;;10.10;;
42802;SDS011;28447;48.682;9.022;2024-03-22T08:55:16;11.93;;;8.53;;
42802;SDS011;28447;48.682;9.022;2024-03-22T08:57:42;13.97;;;9.73;;
42802;SDS011;28447;48.682;9.022;2024-03-22T09:00:09;12.50;;;9.77;;
42802;SDS011;28447;48.682;9.022;2024-03-22T09:02:35;13.30;;;9.90;;
42802;SDS011;28447;48.682;9.022;2024-03-22T09:05:03;11.40;;;9.57;;
42802;SDS011;28447;48.682;9.022;2024-03-22T09:07:29;14.33;;;8.90;;
42802;SDS011;28447;48.682;9.022;2024-03-22T09:09:55;11.70;;;9.43;;
42802;SDS011;28447;48.682;9.022;2024-03-22T09:12:21;17.40;;;9.33;;
42802;SDS011;28447;48.682;9.022;2024-03-22T09:14:47;12.40;;;9.60;;
42802;SDS011;28447;48.682;9.022;2024-03-22T09:17:13;13.23;;;8.97;;
42802;SDS011;28447;48.682;9.022;2024-03-22T09:19:39;12.20;;;9.33;;
42802;SDS011;28447;48.682;9.022;2024-03-22T09:22:05;10.47;;;9.30;;
42802;SDS011;28447;48.682;9.022;2024-03-22T09:24:32;11.07;;;8.33;;
42802;SDS011;28447;48.682;9.022;2024-03-22T09:26:58;10.00;;;7.83;;
42802;SDS011;28447;48.682;9.022;2024-03-22T09:29:24;10.30;;;8.77;;
42802;SDS011;28447;48.682;9.022;2024-03-22T09:31:50;13.20;;;8.90;;
42802;SDS011;28447;48.682;9.022;2024-03-22T09:34:16;10.63;;;7.20;;
42802;SDS011;28447;48.682;9.022;2024-03-22T09:36:42;14.30;;;7.80;;
42802;SDS011;28447;48.682;9.022;2024-03-22T09:39:08;17.20;;;7.93;;
42802;SDS011;28447;48.682;9.022;2024-03-22T09:41:34;9.70;;;7.70;;
42802;SDS011;28447;48.682;9.022;2024-03-22T09:44:03;12.30;;;8.73;;
42802;SDS011;28447;48.682;9.022;2024-03-22T09:46:30;12.60;;;8.53;;
42802;SDS011;28447;48.682;9.022;2024-03-22T09:48:56;13.33;;;9.43;;
42802;SDS011;28447;48.682;9.022;2024-03-22T09:51:22;14.40;;;8.93;;
42802;SDS011;28447;48.682;9.022;2024-03-22T09:53:49;10.10;;;8.93;;
42802;SDS011;28447;48.682;9.022;2024-03-22T09:56:17;12.33;;;9.13;;
42802;SDS011;28447;48.682;9.022;2024-03-22T09:58:46;10.70;;;8.83;;
42802;SDS011;28447;48.682;9.022;2024-03-22T10:01:12;10.07;;;7.90;;
42802;SDS011;28447;48.682;9.022;2024-03-22T10:03:38;10.23;;;8.03;;
42802;SDS011;28447;48.682;9.022;2024-03-22T10:06:04;13.17;;;8.60;;
42802;SDS011;28447;48.682;9.022;2024-03-22T10:08:30;11.70;;;8.70;;
42802;SDS011;28447;48.682;9.022;2024-03-22T10:10:57;13.50;;;9.17;;
42802;SDS011;28447;48.682;9.022;2024-03-22T10:13:23;10.80;;;8.60;;
42802;SDS011;28447;48.682;9.022;2024-03-22T10:15:49;11.13;;;8.77;;
42802;SDS011;28447;48.682;9.022;2024-03-22T10:18:15;10.40;;;8.50;;
42802;SDS011;28447;48.682;9.022;2024-03-22T10:20:41;10.03;;;8.27;;
42802;SDS011;28447;48.682;9.022;2024-03-22T10:23:07;12.20;;;8.87;;
42802;SDS011;28447;48.682;9.022;2024-03-22T10:25:34;12.43;;;9.27;;
42802;SDS011;28447;48.682;9.022;2024-03-22T10:28:00;10.70;;;8.97;;
42802;SDS011;28447;48.682;9.022;2024-03-22T10:30:26;14.33;;;9.00;;
42802;SDS011;28447;48.682;9.022;2024-03-22T10:32:53;10.60;;;8.37;;
42802;SDS011;28447;48.682;9.022;2024-03-22T10:35:19;11.13;;;8.17;;
42802;SDS011;28447;48.682;9.022;2024-03-22T10:37:45;10.77;;;9.43;;
42802;SDS011;28447;48.682;9.022;2024-03-22T10:40:11;12.40;;;9.07;;
42802;SDS011;28447;48.682;9.022;2024-03-22T10:42:39;11.87;;;9.90;;
42802;SDS011;28447;48.682;9.022;2024-03-22T10:45:06;10.03;;;8.70;;
42802;SDS011;28447;48.682;9.022;2024-03-22T10:47:33;10.60;;;7.93;;
42802;SDS011;28447;48.682;9.022;2024-03-22T10:50:09;9.60;;;7.27;;
42802;SDS011;28447;48.682;9.022;2024-03-22T10:52:38;11.23;;;9.13;;
42802;SDS011;28447;48.682;9.022;2024-03-22T10:55:06;14.93;;;9.20;;
42802;SDS011;28447;48.682;9.022;2024-03-22T10:57:33;9.70;;;8.30;;
42802;SDS011;28447;48.682;9.022;2024-03-22T11:00:02;10.20;;;8.27;;
42802;SDS011;28447;48.682;9.022;2024-03-22T11:02:28;10.70;;;8.27;;
42802;SDS011;28447;48.682;9.022;2024-03-22T11:04:58;11.63;;;8.37;;
42802;SDS011;28447;48.682;9.022;2024-03-22T11:07:28;9.63;;;8.50;;
42802;SDS011;28447;48.682;9.022;2024-03-22T11:09:55;12.83;;;7.90;;
42802;SDS011;28447;48.682;9.022;2024-03-22T11:12:23;12.00;;;7.77;;
42802;SDS011;28447;48.682;9.022;2024-03-22T11:14:50;8.63;;;7.67;;
42802;SDS011;28447;48.682;9.022;2024-03-22T11:17:17;9.53;;;7.30;;
42802;SDS011;28447;48.682;9.022;2024-03-22T11:19:43;8.70;;;7.33;;
42802;SDS011;28447;48.682;9.022;2024-03-22T11:22:09;10.10;;;8.57;;
42802;SDS011;28447;48.682;9.022;2024-03-22T11:24:39;10.00;;;8.43;;
42802;SDS011;28447;48.682;9.022;2024-03-22T11:27:05;9.70;;;8.67;;
42802;SDS011;28447;48.682;9.022;2024-03-22T11:29:32;8.80;;;7.43;;
42802;SDS011;28447;48.682;9.022;2024-03-22T11:31:59;9.60;;;7.87;;
42802;SDS011;28447;48.682;9.022;2024-03-22T11:34:25;9.50;;;7.60;;
42802;SDS011;28447;48.682;9.022;2024-03-22T11:36:53;10.57;;;8.50;;
42802;SDS011;28447;48.682;9.022;2024-03-22T11:39:19;8.10;;;7.30;;
42802;SDS011;28447;48.682;9.022;2024-03-22T11:41:45;11.17;;;6.60;;
42802;SDS011;28447;48.682;9.022;2024-03-22T11:44:14;11.70;;;7.00;;
42802;SDS011;28447;48.682;9.022;2024-03-22T11:46:40;9.93;;;6.50;;
42802;SDS011;28447;48.682;9.022;2024-03-22T11:49:06;9.63;;;6.70;;
42802;SDS011;28447;48.682;9.022;2024-03-22T11:51:33;8.40;;;7.47;;
42802;SDS011;28447;48.682;9.022;2024-03-22T11:53:59;7.90;;;7.10;;
42802;SDS011;28447;48.682;9.022;2024-03-22T11:56:28;7.90;;;7.18;;
42802;SDS011;28447;48.682;9.022;2024-03-22T11:58:59;8.65;;;7.53;;
42802;SDS011;28447;48.682;9.022;2024-03-22T12:01:25;7.10;;;6.43;;
42802;SDS011;28447;48.682;9.022;2024-03-22T12:03:52;7.40;;;6.70;;
42802;SDS011;28447;48.682;9.022;2024-03-22T12:06:18;8.37;;;7.60;;
42802;SDS011;28447;48.682;9.022;2024-03-22T12:08:44;7.90;;;7.20;;
42802;SDS011;28447;48.682;9.022;2024-03-22T12:11:10;7.77;;;6.97;;
42802;SDS011;28447;48.682;9.022;2024-03-22T12:13:37;10.80;;;7.10;;
42802;SDS011;28447;48.682;9.022;2024-03-22T12:16:03;9.53;;;7.30;;
42802;SDS011;28447;48.682;9.022;2024-03-22T12:18:29;8.40;;;7.50;;
42802;SDS011;28447;48.682;9.022;2024-03-22T12:20:55;7.30;;;6.60;;
42802;SDS011;28447;48.682;9.022;2024-03-22T12:23:21;10.57;;;6.63;;
42802;SDS011;28447;48.682;9.022;2024-03-22T12:25:49;11.63;;;6.97;;
42802;SDS011;28447;48.682;9.022;2024-03-22T12:28:16;8.87;;;7.30;;
42802;SDS011;28447;48.682;9.022;2024-03-22T12:30:42;9.77;;;7.63;;
42802;SDS011;28447;48.682;9.022;2024-03-22T12:33:08;7.87;;;6.90;;
42802;SDS011;28447;48.682;9.022;2024-03-22T12:35:36;9.40;;;6.60;;
42802;SDS011;28447;48.682;9.022;2024-03-22T12:38:02;7.10;;;6.47;;
42802;SDS011;28447;48.682;9.022;2024-03-22T12:40:28;7.70;;;6.72;;
42802;SDS011;28447;48.682;9.022;2024-03-22T12:42:55;6.65;;;6.05;;
42802;SDS011;28447;48.682;9.022;2024-03-22T12:45:21;7.50;;;6.80;;
42802;SDS011;28447;48.682;9.022;2024-03-22T12:47:47;6.77;;;6.17;;
42802;SDS011;28447;48.682;9.022;2024-03-22T12:50:13;7.70;;;7.00;;
42802;SDS011;28447;48.682;9.022;2024-03-22T12:52:40;7.15;;;6.65;;
42802;SDS011;28447;48.682;9.022;2024-03-22T12:55:06;7.73;;;7.00;;
42802;SDS011;28447;48.682;9.022;2024-03-22T12:57:32;6.90;;;6.30;;
42802;SDS011;28447;48.682;9.022;2024-03-22T12:59:58;8.13;;;7.43;;
42802;SDS011;28447;48.682;9.022;2024-03-22T13:02:24;8.05;;;7.45;;
42802;SDS011;28447;48.682;9.022;2024-03-22T13:04:51;9.15;;;7.07;;
42802;SDS011;28447;48.682;9.022;2024-03-22T13:07:18;7.70;;;7.00;;
42802;SDS011;28447;48.682;9.022;2024-03-22T13:09:45;7.25;;;6.65;;
42802;SDS011;28447;48.682;9.022;2024-03-22T13:12:10;7.97;;;7.28;;
42802;SDS011;28447;48.682;9.022;2024-03-22T13:14:36;9.17;;;8.37;;
42802;SDS011;28447;48.682;9.022;2024-03-22T13:17:02;8.90;;;8.00;;
42802;SDS011;28447;48.682;9.022;2024-03-22T13:19:28;8.80;;;8.00;;
42802;SDS011;28447;48.682;9.022;2024-03-22T13:21:54;9.03;;;8.07;;
42802;SDS011;28447;48.682;9.022;2024-03-22T13:24:20;7.90;;;6.87;;
42802;SDS011;28447;48.682;9.022;2024-03-22T13:26:46;7.53;;;6.83;;
42802;SDS011;28447;48.682;9.022;2024-03-22T13:29:12;7.50;;;6.73;;
42802;SDS011;28447;48.682;9.022;2024-03-22T13:31:39;7.87;;;7.13;;
42802;SDS011;28447;48.682;9.022;2024-03-22T13:34:05;8.57;;;7.80;;
42802;SDS011;28447;48.682;9.022;2024-03-22T13:36:31;7.60;;;6.90;;
42802;SDS011;28447;48.682;9.022;2024-03-22T13:38:58;7.10;;;6.50;;
42802;SDS011;28447;48.682;9.022;2024-03-22T13:41:24;7.63;;;6.87;;
42802;SDS011;28447;48.682;9.022;2024-03-22T13:43:50;7.30;;;6.70;;
42802;SDS011;28447;48.682;9.022;2024-03-22T13:46:16;7.30;;;6.43;;
42802;SDS011;28447;48.682;9.022;2024-03-22T13:48:42;6.40;;;5.90;;
42802;SDS011;28447;48.682;9.022;2024-03-22T13:51:09;6.30;;;5.82;;
42802;SDS011;28447;48.682;9.022;2024-03-22T13:53:35;6.85;;;6.25;;
42802;SDS011;28447;48.682;9.022;2024-03-22T13:56:02;7.03;;;6.43;;
42802;SDS011;28447;48.682;9.022;2024-03-22T13:58:28;7.10;;;6.50;;
42802;SDS011;28447;48.682;9.022;2024-03-22T14:00:54;6.32;;;5.93;;
42802;SDS011;28447;48.682;9.022;2024-03-22T14:03:20;7.57;;;7.07;;
42802;SDS011;28447;48.682;9.022;2024-03-22T14:05:46;9.35;;;7.20;;
42802;SDS011;28447;48.682;9.022;2024-03-22T14:08:13;7.70;;;7.10;;
42802;SDS011;28447;48.682;9.022;2024-03-22T14:10:39;8.43;;;7.72;;
42802;SDS011;28447;48.682;9.022;2024-03-22T14:13:05;7.18;;;6.68;;
42802;SDS011;28447;48.682;9.022;2024-03-22T14:15:33;7.40;;;6.80;;
42802;SDS011;28447;48.682;9.022;2024-03-22T14:18:00;8.10;;;7.50;;
42802;SDS011;28447;48.682;9.022;2024-03-22T14:20:26;7.78;;;7.07;;
42802;SDS011;28447;48.682;9.022;2024-03-22T14:22:53;6.97;;;6.57;;
42802;SDS011;28447;48.682;9.022;2024-03-22T14:25:19;6.80;;;6.30;;
42802;SDS011;28447;48.682;9.022;2024-03-22T14:27:45;6.57;;;5.80;;
42802;SDS011;28447;48.682;9.022;2024-03-22T14:30:12;8.07;;;6.10;;
42802;SDS011;28447;48.682;9.022;2024-03-22T14:32:39;5.63;;;5.33;;
42802;SDS011;28447;48.682;9.022;2024-03-22T14:35:06;5.77;;;5.37;;
42802;SDS011;28447;48.682;9.022;2024-03-22T14:37:32;6.00;;;5.50;;
42802;SDS011;28447;48.682;9.022;2024-03-22T14:39:58;5.90;;;5.50;;
42802;SDS011;28447;48.682;9.022;2024-03-22T14:42:25;5.87;;;5.37;;
42802;SDS011;28447;48.682;9.022;2024-03-22T14:44:51;5.70;;;5.30;;
42802;SDS011;28447;48.682;9.022;2024-03-22T14:47:17;8.50;;;5.50;;
42802;SDS011;28447;48.682;9.022;2024-03-22T14:49:44;6.03;;;5.63;;
42802;SDS011;28447;48.682;9.022;2024-03-22T14:52:10;5.20;;;4.90;;
42802;SDS011;28447;48.682;9.022;2024-03-22T14:54:36;5.50;;;5.00;;
42802;SDS011;28447;48.682;9.022;2024-03-22T14:57:02;5.30;;;5.00;;
42802;SDS011;28447;48.682;9.022;2024-03-22T14:59:28;5.87;;;5.37;;
42802;SDS011;28447;48.682;9.022;2024-03-22T15:01:54;5.33;;;5.03;;
42802;SDS011;28447;48.682;9.022;2024-03-22T15:04:21;5.63;;;5.20;;
42802;SDS011;28447;48.682;9.022;2024-03-22T15:06:47;5.77;;;5.17;;
42802;SDS011;28447;48.682;9.022;2024-03-22T15:09:16;5.30;;;5.00;;
42802;SDS011;28447;48.682;9.022;2024-03-22T15:11:43;7.70;;;5.17;;
42802;SDS011;28447;48.682;9.022;2024-03-22T15:14:09;8.13;;;5.50;;
42802;SDS011;28447;48.682;9.022;2024-03-22T15:16:35;5.63;;;5.23;;
42802;SDS011;28447;48.682;9.022;2024-03-22T15:19:01;5.53;;;5.13;;
42802;SDS011;28447;48.682;9.022;2024-03-22T15:21:28;5.80;;;5.30;;
42802;SDS011;28447;48.682;9.022;2024-03-22T15:23:54;6.10;;;5.70;;
42802;SDS011;28447;48.682;9.022;2024-03-22T15:26:20;5.70;;;5.37;;
42802;SDS011;28447;48.682;9.022;2024-03-22T15:28:46;6.00;;;5.33;;
42802;SDS011;28447;48.682;9.022;2024-03-22T15:31:14;6.20;;;5.63;;
42802;SDS011;28447;48.682;9.022;2024-03-22T15:33:40;5.67;;;5.27;;
42802;SDS011;28447;48.682;9.022;2024-03-22T15:36:06;5.73;;;5.33;;
42802;SDS011;28447;48.682;9.022;2024-03-22T15:38:32;5.80;;;5.40;;
42802;SDS011;28447;48.682;9.022;2024-03-22T15:40:59;5.40;;;4.90;;
42802;SDS011;28447;48.682;9.022;2024-03-22T15:43:25;5.57;;;5.00;;
42802;SDS011;28447;48.682;9.022;2024-03-22T15:45:51;5.83;;;5.43;;
42802;SDS011;28447;48.682;9.022;2024-03-22T15:48:17;5.10;;;4.70;;
42802;SDS011;28447;48.682;9.022;2024-03-22T15:50:48;5.10;;;4.80;;
42802;SDS011;28447;48.682;9.022;2024-03-22T15:53:18;4.80;;;4.50;;
42802;SDS011;28447;48.682;9.022;2024-03-22T15:55:44;4.23;;;3.93;;
42802;SDS011;28447;48.682;9.022;2024-03-22T15:58:10;4.10;;;3.80;;
42802;SDS011;28447;48.682;9.022;2024-03-22T16:00:36;4.57;;;4.17;;
42802;SDS011;28447;48.682;9.022;2024-03-22T16:03:02;5.33;;;4.93;;
42802;SDS011;28447;48.682;9.022;2024-03-22T16:05:30;5.50;;;5.00;;
42802;SDS011;28447;48.682;9.022;2024-03-22T16:07:56;5.10;;;4.80;;
42802;SDS011;28447;48.682;9.022;2024-03-22T16:10:22;6.10;;;4.50;;
42802;SDS011;28447;48.682;9.022;2024-03-22T16:12:48;6.23;;;4.50;;
42802;SDS011;28447;48.682;9.022;2024-03-22T16:15:15;4.90;;;4.57;;
42802;SDS011;28447;48.682;9.022;2024-03-22T16:17:41;4.70;;;4.40;;
42802;SDS011;28447;48.682;9.022;2024-03-22T16:20:07;5.20;;;4.80;;
42802;SDS011;28447;48.682;9.022;2024-03-22T16:22:37;5.03;;;4.70;;
42802;SDS011;28447;48.682;9.022;2024-03-22T16:25:04;4.97;;;4.47;;
42802;SDS011;28447;48.682;9.022;2024-03-22T16:27:31;5.10;;;4.70;;
42802;SDS011;28447;48.682;9.022;2024-03-22T16:29:58;4.80;;;4.50;;
42802;SDS011;28447;48.682;9.022;2024-03-22T16:32:24;5.47;;;4.97;;
42802;SDS011;28447;48.682;9.022;2024-03-22T16:34:50;4.80;;;4.50;;
42802;SDS011;28447;48.682;9.022;2024-03-22T16:37:16;5.07;;;4.67;;
42802;SDS011;28447;48.682;9.022;2024-03-22T16:39:42;4.97;;;4.67;;
42802;SDS011;28447;48.682;9.022;2024-03-22T16:42:08;6.33;;;4.70;;
42802;SDS011;28447;48.682;9.022;2024-03-22T16:44:34;5.20;;;4.80;;
42802;SDS011;28447;48.682;9.022;2024-03-22T16:47:02;5.30;;;4.80;;
42802;SDS011;28447;48.682;9.022;2024-03-22T16:49:28;5.10;;;4.73;;
42802;SDS011;28447;48.682;9.022;2024-03-22T16:51:54;5.40;;;4.70;;
42802;SDS011;28447;48.682;9.022;2024-03-22T16:54:20;5.77;;;4.90;;
42802;SDS011;28447;48.682;9.022;2024-03-22T16:56:46;6.53;;;4.73;;
42802;SDS011;28447;48.682;9.022;2024-03-22T16:59:12;5.07;;;4.63;;
42802;SDS011;28447;48.682;9.022;2024-03-22T17:01:39;5.47;;;5.07;;
42802;SDS011;28447;48.682;9.022;2024-03-22T17:04:05;5.23;;;4.83;;
42802;SDS011;28447;48.682;9.022;2024-03-22T17:06:31;5.63;;;4.50;;
42802;SDS011;28447;48.682;9.022;2024-03-22T17:08:57;5.20;;;4.70;;
42802;SDS011;28447;48.682;9.022;2024-03-22T17:11:23;5.10;;;4.70;;
42802;SDS011;28447;48.682;9.022;2024-03-22T17:13:49;4.77;;;4.37;;
42802;SDS011;28447;48.682;9.022;2024-03-22T17:16:15;10.37;;;4.93;;
42802;SDS011;28447;48.682;9.022;2024-03-22T17:18:41;5.20;;;4.80;;
42802;SDS011;28447;48.682;9.022;2024-03-22T17:21:07;5.10;;;4.70;;
42802;SDS011;28447;48.682;9.022;2024-03-22T17:23:33;5.47;;;4.27;;
42802;SDS011;28447;48.682;9.022;2024-03-22T17:26:02;6.63;;;4.97;;
42802;SDS011;28447;48.682;9.022;2024-03-22T17:28:28;5.67;;;5.17;;
42802;SDS011;28447;48.682;9.022;2024-03-22T17:30:55;9.10;;;6.27;;
42802;SDS011;28447;48.682;9.022;2024-03-22T17:33:21;6.50;;;5.90;;
42802;SDS011;28447;48.682;9.022;2024-03-22T17:35:47;5.33;;;4.83;;
42802;SDS011;28447;48.682;9.022;2024-03-22T17:38:13;6.43;;;5.30;;
42802;SDS011;28447;48.682;9.022;2024-03-22T17:40:39;9.00;;;5.53;;
42802;SDS011;28447;48.682;9.022;2024-03-22T17:43:06;7.60;;;5.80;;
42802;SDS011;28447;48.682;9.022;2024-03-22T17:45:33;7.97;;;6.00;;
42802;SDS011;28447;48.682;9.022;2024-03-22T17:47:59;10.70;;;5.70;;
42802;SDS011;28447;48.682;9.022;2024-03-22T17:50:25;6.97;;;5.00;;
42802;SDS011;28447;48.682;9.022;2024-03-22T17:52:51;5.63;;;4.90;;
42802;SDS011;28447;48.682;9.022;2024-03-22T17:55:17;5.73;;;5.00;;
42802;SDS011;28447;48.682;9.022;2024-03-22T17:57:43;5.67;;;5.03;;
42802;SDS011;28447;48.682;9.022;2024-03-22T18:00:11;5.03;;;4.63;;
42802;SDS011;28447;48.682;9.022;2024-03-22T18:02:37;5.03;;;4.53;;
42802;SDS011;28447;48.682;9.022;2024-03-22T18:05:03;4.90;;;4.40;;
42802;SDS011;28447;48.682;9.022;2024-03-22T18:07:31;4.43;;;4.03;;
42802;SDS011;28447;48.682;9.022;2024-03-22T18:09:57;7.43;;;4.53;;
42802;SDS011;28447;48.682;9.022;2024-03-22T18:12:23;5.70;;;3.93;;
42802;SDS011;28447;48.682;9.022;2024-03-22T18:14:49;7.43;;;4.10;;
42802;SDS011;28447;48.682;9.022;2024-03-22T18:17:15;6.83;;;4.63;;
42802;SDS011;28447;48.682;9.022;2024-03-22T18:19:41;5.13;;;4.40;;
42802;SDS011;28447;48.682;9.022;2024-03-22T18:22:07;7.10;;;3.90;;
42802;SDS011;28447;48.682;9.022;2024-03-22T18:24:33;4.37;;;3.97;;
42802;SDS011;28447;48.682;9.022;2024-03-22T18:27:00;4.87;;;3.77;;
42802;SDS011;28447;48.682;9.022;2024-03-22T18:29:26;6.37;;;4.20;;
42802;SDS011;28447;48.682;9.022;2024-03-22T18:31:52;5.33;;;4.13;;
42802;SDS011;28447;48.682;9.022;2024-03-22T18:34:18;6.67;;;4.60;;
42802;SDS011;28447;48.682;9.022;2024-03-22T18:36:44;6.93;;;4.33;;
42802;SDS011;28447;48.682;9.022;2024-03-22T18:39:10;7.77;;;5.07;;
42802;SDS011;28447;48.682;9.022;2024-03-22T18:41:36;6.87;;;5.20;;
42802;SDS011;28447;48.682;9.022;2024-03-22T18:44:02;7.57;;;5.97;;
42802;SDS011;28447;48.682;9.022;2024-03-22T18:46:28;8.13;;;6.30;;
42802;SDS011;28447;48.682;9.022;2024-03-22T18:48:55;8.30;;;6.70;;
42802;SDS011;28447;48.682;9.022;2024-03-22T18:51:21;10.07;;;6.70;;
42802;SDS011;28447;48.682;9.022;2024-03-22T18:53:47;10.20;;;6.67;;
42802;SDS011;28447;48.682;9.022;2024-03-22T18:56:13;11.97;;;7.60;;
42802;SDS011;28447;48.682;9.022;2024-03-22T18:58:39;9.30;;;7.47;;
42802;SDS011;28447;48.682;9.022;2024-03-22T19:01:05;9.03;;;6.97;;
42802;SDS011;28447;48.682;9.022;2024-03-22T19:03:32;15.47;;;11.67;;
42802;SDS011;28447;48.682;9.022;2024-03-22T19:05:58;20.63;;;12.27;;
42802;SDS011;28447;48.682;9.022;2024-03-22T19:08:24;17.70;;;13.23;;
42802;SDS011;28447;48.682;9.022;2024-03-22T19:10:50;11.10;;;9.40;;
42802;SDS011;28447;48.682;9.022;2024-03-22T19:13:16;9.70;;;7.57;;
42802;SDS011;28447;48.682;9.022;2024-03-22T19:15:51;13.63;;;8.50;;
42802;SDS011;28447;48.682;9.022;2024-03-22T19:18:17;10.43;;;6.60;;
42802;SDS011;28447;48.682;9.022;2024-03-22T19:20:43;9.00;;;5.87;;
42802;SDS011;28447;48.682;9.022;2024-03-22T19:23:09;10.30;;;6.90;;
42802;SDS011;28447;48.682;9.022;2024-03-22T19:25:36;14.17;;;7.33;;
42802;SDS011;28447;48.682;9.022;2024-03-22T19:28:02;15.60;;;6.73;;
42802;SDS011;28447;48.682;9.022;2024-03-22T19:30:28;8.83;;;6.03;;
42802;SDS011;28447;48.682;9.022;2024-03-22T19:32:53;7.60;;;6.50;;